createdAt,value
2023-05-09T00:00:54.324Z,22.10
2023-05-09T00:03:21.912Z,22.10
2023-05-09T00:05:49.628Z,22.10
2023-05-09T00:08:18.007Z,22.10
2023-05-09T00:10:45.569Z,22.10
2023-05-09T00:13:14.211Z,22.10
2023-05-09T00:15:42.069Z,22.10
2023-05-09T00:18:09.818Z,22.10
2023-05-09T00:20:37.589Z,22.10
2023-05-09T00:23:05.822Z,22.10
2023-05-09T00:25:33.976Z,22.10
2023-05-09T00:28:01.811Z,22.10
2023-05-09T00:30:29.420Z,22.10
2023-05-09T00:32:57.229Z,22.10
2023-05-09T00:35:25.066Z,22.10
2023-05-09T00:37:52.643Z,22.10
2023-05-09T00:40:20.683Z,22.00
2023-05-09T00:42:48.333Z,22.00
2023-05-09T00:45:16.341Z,22.00
2023-05-09T00:47:44.119Z,22.00
2023-05-09T00:50:11.790Z,22.00
2023-05-09T00:52:39.729Z,22.00
2023-05-09T00:55:09.278Z,22.00
2023-05-09T00:57:37.204Z,22.00
2023-05-09T01:00:05.493Z,22.00
2023-05-09T01:02:33.483Z,22.00
2023-05-09T01:05:01.517Z,22.00
2023-05-09T01:07:40.858Z,22.00
2023-05-09T01:10:44.255Z,22.00
2023-05-09T01:13:28.009Z,22.00
2023-05-09T01:16:09.155Z,22.00
2023-05-09T01:19:10.195Z,22.00
2023-05-09T01:21:44.198Z,22.00
2023-05-09T01:24:36.407Z,22.00
2023-05-09T01:27:23.666Z,22.00
2023-05-09T01:29:58.654Z,22.00
2023-05-09T01:32:28.569Z,22.00
2023-05-09T01:35:00.568Z,21.90
2023-05-09T01:37:37.940Z,22.00
2023-05-09T01:40:14.701Z,21.90
2023-05-09T01:42:57.711Z,21.90
2023-05-09T01:45:27.642Z,21.90
2023-05-09T01:47:56.594Z,21.90
2023-05-09T01:50:26.048Z,21.90
2023-05-09T01:52:57.452Z,21.90
2023-05-09T01:55:30.067Z,21.90
2023-05-09T01:57:59.942Z,21.90
2023-05-09T02:00:28.640Z,21.90
2023-05-09T02:02:57.444Z,21.90
2023-05-09T02:05:29.568Z,21.90
2023-05-09T02:08:03.703Z,21.90
2023-05-09T02:10:35.353Z,21.90
2023-05-09T02:13:03.278Z,21.90
2023-05-09T02:15:32.497Z,21.90
2023-05-09T02:18:00.760Z,21.90
2023-05-09T02:20:28.507Z,21.90
2023-05-09T02:22:57.060Z,21.90
2023-05-09T02:25:24.884Z,21.90
2023-05-09T02:27:54.421Z,21.90
2023-05-09T02:30:26.191Z,21.90
2023-05-09T02:33:05.629Z,21.90
2023-05-09T02:35:34.704Z,21.90
2023-05-09T02:38:03.005Z,21.90
2023-05-09T02:40:31.229Z,21.90
2023-05-09T02:42:59.086Z,21.90
2023-05-09T02:45:27.091Z,21.90
2023-05-09T02:47:54.643Z,21.80
2023-05-09T02:50:23.073Z,21.80
2023-05-09T02:52:50.621Z,21.90
2023-05-09T02:55:18.176Z,21.90
2023-05-09T02:57:45.860Z,21.80
2023-05-09T03:00:14.613Z,21.80
2023-05-09T03:02:42.414Z,21.80
2023-05-09T03:05:16.147Z,21.80
2023-05-09T03:07:44.676Z,21.80
2023-05-09T03:10:13.065Z,21.80
2023-05-09T03:12:43.958Z,21.80
2023-05-09T03:15:13.431Z,21.80
2023-05-09T03:17:42.336Z,21.80
2023-05-09T03:20:10.536Z,21.80
2023-05-09T03:22:38.143Z,21.80
2023-05-09T03:25:09.824Z,21.80
2023-05-09T03:27:37.303Z,21.80
2023-05-09T03:30:08.647Z,21.80
2023-05-09T03:32:36.717Z,21.80
2023-05-09T03:35:04.757Z,21.80
2023-05-09T03:37:33.670Z,21.80
2023-05-09T03:40:01.193Z,21.80
2023-05-09T03:42:32.990Z,21.80
2023-05-09T03:45:03.067Z,21.80
2023-05-09T03:47:30.673Z,21.80
2023-05-09T03:49:58.833Z,21.80
2023-05-09T03:52:26.381Z,21.80
2023-05-09T03:54:54.418Z,21.80
2023-05-09T03:57:21.879Z,21.80
2023-05-09T03:59:51.751Z,21.80
2023-05-09T04:02:44.941Z,21.80
2023-05-09T04:05:38.073Z,21.80
2023-05-09T04:08:08.741Z,21.70
2023-05-09T04:10:36.660Z,21.80
2023-05-09T04:13:05.311Z,21.80
2023-05-09T04:15:32.929Z,21.80
2023-05-09T04:18:00.771Z,21.70
2023-05-09T04:20:28.589Z,21.70
2023-05-09T04:22:56.801Z,21.70
2023-05-09T04:25:24.856Z,21.80
2023-05-09T04:27:53.056Z,21.70
2023-05-09T04:30:21.137Z,21.70
2023-05-09T04:32:49.348Z,21.80
2023-05-09T04:35:19.663Z,21.70
2023-05-09T04:37:49.459Z,21.70
2023-05-09T04:40:18.039Z,21.70
2023-05-09T04:42:53.763Z,21.80
2023-05-09T04:45:25.206Z,21.70
2023-05-09T04:47:52.809Z,21.70
2023-05-09T04:50:20.770Z,21.70
2023-05-09T04:52:48.345Z,21.70
2023-05-09T04:55:16.357Z,21.70
2023-05-09T04:57:47.524Z,21.70
2023-05-09T05:00:17.990Z,21.70
2023-05-09T05:02:47.404Z,21.70
2023-05-09T05:05:15.157Z,21.80
2023-05-09T05:07:44.369Z,21.70
2023-05-09T05:10:16.548Z,21.70
2023-05-09T05:12:48.653Z,21.70
2023-05-09T05:15:19.615Z,21.80
2023-05-09T05:17:48.789Z,21.70
2023-05-09T05:20:22.866Z,21.70
2023-05-09T05:22:51.152Z,21.80
2023-05-09T05:25:18.807Z,21.80
2023-05-09T05:27:48.847Z,21.80
2023-05-09T05:30:16.998Z,21.70
2023-05-09T05:32:45.136Z,21.80
2023-05-09T05:35:14.729Z,21.80
2023-05-09T05:37:43.799Z,21.80
2023-05-09T05:40:12.369Z,21.80
2023-05-09T05:42:44.624Z,21.80
2023-05-09T05:45:13.037Z,21.80
2023-05-09T05:47:44.241Z,21.80
2023-05-09T05:50:16.132Z,21.80
2023-05-09T05:52:44.415Z,21.80
2023-05-09T05:55:15.929Z,21.80
2023-05-09T05:57:44.031Z,21.80
2023-05-09T06:00:15.665Z,21.80
2023-05-09T06:02:51.002Z,21.90
2023-05-09T06:05:26.759Z,21.80
2023-05-09T06:07:54.343Z,21.90
2023-05-09T06:10:22.082Z,21.90
2023-05-09T06:12:49.973Z,21.90
2023-05-09T06:15:18.339Z,21.90
2023-05-09T06:17:49.436Z,21.90
2023-05-09T06:20:17.340Z,21.90
2023-05-09T06:22:44.942Z,21.90
2023-05-09T06:25:12.964Z,21.90
2023-05-09T06:27:40.806Z,21.90
2023-05-09T06:30:21.436Z,21.90
2023-05-09T06:32:54.377Z,21.90
2023-05-09T06:35:22.216Z,21.90
2023-05-09T06:37:50.655Z,22.00
2023-05-09T06:40:18.342Z,22.00
2023-05-09T06:42:46.602Z,22.00
2023-05-09T06:45:15.897Z,22.00
2023-05-09T06:47:43.863Z,22.00
2023-05-09T06:50:11.724Z,22.10
2023-05-09T06:52:39.304Z,22.10
2023-05-09T06:55:08.368Z,22.10
2023-05-09T06:57:36.324Z,22.10
2023-05-09T07:00:05.443Z,22.10
2023-05-09T07:02:33.332Z,22.10
2023-05-09T07:05:01.366Z,22.10
2023-05-09T07:07:29.414Z,22.10
2023-05-09T07:10:07.385Z,22.10
2023-05-09T07:12:37.887Z,22.10
2023-05-09T07:15:06.732Z,22.10
2023-05-09T07:17:34.455Z,22.20
2023-05-09T07:20:04.260Z,22.20
2023-05-09T07:22:33.111Z,22.20
2023-05-09T07:25:02.461Z,22.20
2023-05-09T07:27:30.247Z,22.20
2023-05-09T07:29:57.836Z,22.20
2023-05-09T07:32:25.868Z,22.20
2023-05-09T07:34:53.381Z,22.20
2023-05-09T07:37:20.961Z,22.30
2023-05-09T07:39:48.658Z,22.30
2023-05-09T07:42:16.591Z,22.20
2023-05-09T07:44:44.524Z,22.30
2023-05-09T07:47:15.450Z,22.30
2023-05-09T07:49:43.861Z,22.30
2023-05-09T07:52:11.397Z,22.30
2023-05-09T07:54:39.000Z,22.30
2023-05-09T07:57:06.457Z,22.30
2023-05-09T07:59:34.409Z,22.40
2023-05-09T08:02:02.608Z,22.40
2023-05-09T08:04:30.179Z,22.40
2023-05-09T08:06:58.147Z,22.40
2023-05-09T08:09:26.908Z,22.40
2023-05-09T08:11:54.676Z,22.50
2023-05-09T08:14:22.562Z,22.50
2023-05-09T08:16:50.308Z,22.40
2023-05-09T08:19:17.862Z,22.50
2023-05-09T08:21:45.237Z,22.50
2023-05-09T08:24:12.728Z,22.50
2023-05-09T08:26:40.600Z,22.50
2023-05-09T08:29:08.196Z,22.50
2023-05-09T08:31:35.938Z,22.50
2023-05-09T08:34:04.123Z,22.50
2023-05-09T08:36:32.917Z,22.50
2023-05-09T08:39:01.004Z,22.50
2023-05-09T08:41:28.655Z,22.50
2023-05-09T08:43:57.091Z,22.50
2023-05-09T08:46:37.699Z,22.60
2023-05-09T08:49:09.158Z,22.60
2023-05-09T08:51:37.200Z,22.60
2023-05-09T08:54:06.107Z,22.60
2023-05-09T08:56:36.449Z,22.60
2023-05-09T08:59:06.084Z,22.60
2023-05-09T09:01:37.169Z,22.60
2023-05-09T09:04:09.264Z,22.60
2023-05-09T09:06:37.332Z,22.60
2023-05-09T09:09:08.875Z,22.60
2023-05-09T09:11:39.367Z,22.70
2023-05-09T09:14:17.252Z,22.60
2023-05-09T09:16:47.899Z,22.70
2023-05-09T09:19:19.244Z,22.70
2023-05-09T09:21:51.407Z,22.70
2023-05-09T09:24:23.506Z,22.60
2023-05-09T09:26:56.787Z,22.60
2023-05-09T09:29:24.787Z,22.70
2023-05-09T09:31:55.970Z,22.60
2023-05-09T09:34:24.716Z,22.70
2023-05-09T09:36:52.452Z,22.70
2023-05-09T09:39:21.884Z,22.70
2023-05-09T09:41:49.927Z,22.70
2023-05-09T09:44:21.072Z,22.70
2023-05-09T09:46:55.511Z,22.60
2023-05-09T09:49:27.484Z,22.70
2023-05-09T09:51:57.934Z,22.70
2023-05-09T09:54:29.205Z,22.70
2023-05-09T09:56:57.345Z,22.70
2023-05-09T09:59:27.045Z,22.70
2023-05-09T10:02:08.376Z,22.80
2023-05-09T10:04:39.566Z,22.80
2023-05-09T10:07:13.679Z,22.80
2023-05-09T10:09:44.299Z,22.80
2023-05-09T10:12:14.992Z,22.80
2023-05-09T10:14:43.759Z,22.90
2023-05-09T10:17:14.985Z,22.90
2023-05-09T10:19:47.462Z,22.90
2023-05-09T10:22:16.878Z,22.90
2023-05-09T10:24:55.733Z,22.90
2023-05-09T10:27:29.009Z,23.00
2023-05-09T10:30:08.424Z,23.00
2023-05-09T10:33:08.136Z,23.00
2023-05-09T10:35:45.392Z,23.00
2023-05-09T10:38:14.315Z,23.00
2023-05-09T10:40:42.318Z,23.00
2023-05-09T10:43:10.469Z,23.00
2023-05-09T10:45:38.791Z,23.00
2023-05-09T10:48:09.214Z,23.00
2023-05-09T10:50:39.169Z,23.00
2023-05-09T10:53:07.851Z,23.00
2023-05-09T10:55:52.561Z,23.10
2023-05-09T10:58:37.688Z,23.10
2023-05-09T11:01:06.128Z,23.10
2023-05-09T11:03:54.408Z,23.10
2023-05-09T11:06:53.677Z,23.10
2023-05-09T11:09:38.332Z,23.10
2023-05-09T11:12:06.237Z,23.10
2023-05-09T11:14:47.696Z,23.10
2023-05-09T11:17:28.697Z,23.10
2023-05-09T11:20:05.919Z,23.20
2023-05-09T11:22:45.177Z,23.20
2023-05-09T11:25:15.294Z,23.20
2023-05-09T11:27:49.820Z,23.20
2023-05-09T11:30:20.293Z,23.20
2023-05-09T11:32:56.182Z,23.30
2023-05-09T11:35:27.157Z,23.30
2023-05-09T11:38:06.211Z,23.30
2023-05-09T11:40:35.980Z,23.30
2023-05-09T11:43:04.177Z,23.30
2023-05-09T11:45:33.926Z,23.40
2023-05-09T11:48:02.317Z,23.40
2023-05-09T11:50:30.331Z,23.40
2023-05-09T11:52:58.765Z,23.40
2023-05-09T11:55:30.454Z,23.50
2023-05-09T11:57:59.539Z,23.50
2023-05-09T12:00:27.379Z,23.50
2023-05-09T12:02:55.187Z,23.50
2023-05-09T12:05:23.990Z,23.50
2023-05-09T12:07:52.988Z,23.60
2023-05-09T12:10:25.890Z,23.60
2023-05-09T12:12:57.351Z,23.60
2023-05-09T12:15:25.151Z,23.60
2023-05-09T12:18:08.459Z,23.60
2023-05-09T12:20:51.394Z,23.60
2023-05-09T12:23:19.909Z,23.70
2023-05-09T12:25:59.845Z,23.60
2023-05-09T12:28:28.117Z,23.70
2023-05-09T12:30:56.378Z,23.70
2023-05-09T12:33:24.807Z,23.70
2023-05-09T12:36:13.892Z,23.70
2023-05-09T12:38:42.309Z,23.80
2023-05-09T12:41:30.864Z,23.70
2023-05-09T12:43:59.957Z,23.80
2023-05-09T12:46:27.669Z,23.80
2023-05-09T12:48:55.913Z,23.70
2023-05-09T12:51:23.885Z,23.80
2023-05-09T12:53:51.454Z,23.80
2023-05-09T12:56:21.030Z,23.80
2023-05-09T12:58:59.625Z,23.70
2023-05-09T13:01:30.784Z,23.80
2023-05-09T13:04:04.299Z,23.80
2023-05-09T13:06:32.858Z,23.80
2023-05-09T13:09:06.306Z,23.80
2023-05-09T13:11:34.830Z,23.80
2023-05-09T13:14:04.412Z,23.80
2023-05-09T13:16:32.193Z,23.80
2023-05-09T13:19:01.894Z,23.80
2023-05-09T13:21:29.620Z,23.80
2023-05-09T13:23:57.427Z,23.80
2023-05-09T13:26:25.757Z,23.80
2023-05-09T13:28:54.080Z,23.80
2023-05-09T13:31:22.867Z,23.80
2023-05-09T13:33:52.119Z,23.80
2023-05-09T13:36:20.424Z,23.80
2023-05-09T13:38:48.614Z,23.80
2023-05-09T13:41:20.498Z,23.80
2023-05-09T13:43:48.408Z,23.70
2023-05-09T13:46:16.158Z,23.80
2023-05-09T13:48:44.846Z,23.80
2023-05-09T13:51:12.543Z,23.80
2023-05-09T13:53:40.133Z,23.80
2023-05-09T13:56:09.933Z,23.80
2023-05-09T13:58:37.654Z,23.80
2023-05-09T14:01:05.451Z,23.80
2023-05-09T14:03:33.372Z,23.80
2023-05-09T14:06:01.193Z,23.80
2023-05-09T14:08:28.805Z,23.80
2023-05-09T14:10:56.412Z,23.80
2023-05-09T14:13:24.125Z,23.80
2023-05-09T14:15:52.327Z,23.80
2023-05-09T14:18:23.042Z,23.80
2023-05-09T14:20:50.750Z,23.80
2023-05-09T14:23:20.597Z,23.80
2023-05-09T14:25:48.303Z,23.80
2023-05-09T14:28:16.325Z,23.80
2023-05-09T14:30:44.149Z,23.80
2023-05-09T14:33:11.773Z,23.80
2023-05-09T14:35:41.365Z,23.80
2023-05-09T14:38:09.930Z,23.80
2023-05-09T14:40:37.818Z,23.80
2023-05-09T14:43:06.205Z,23.80
2023-05-09T14:45:34.540Z,23.80
2023-05-09T14:48:04.071Z,23.80
2023-05-09T14:50:34.625Z,23.80
2023-05-09T14:53:02.379Z,23.80
2023-05-09T14:55:31.489Z,23.80
2023-05-09T14:57:59.412Z,23.80
2023-05-09T15:00:28.963Z,23.90
2023-05-09T15:02:57.295Z,23.80
2023-05-09T15:05:25.401Z,23.80
2023-05-09T15:07:53.159Z,23.90
2023-05-09T15:10:21.204Z,23.90
2023-05-09T15:12:48.929Z,23.90
2023-05-09T15:15:21.070Z,23.90
2023-05-09T15:17:48.667Z,23.90
2023-05-09T15:20:20.649Z,23.90
2023-05-09T15:22:51.070Z,23.90
2023-05-09T15:25:19.972Z,23.90
2023-05-09T15:27:50.573Z,23.90
2023-05-09T15:30:18.551Z,23.80
2023-05-09T15:32:47.252Z,23.90
2023-05-09T15:35:16.197Z,23.80
2023-05-09T15:37:44.433Z,23.90
2023-05-09T15:40:12.511Z,23.80
2023-05-09T15:42:42.720Z,23.90
2023-05-09T15:45:11.124Z,23.90
2023-05-09T15:47:39.284Z,23.80
2023-05-09T15:50:07.957Z,23.80
2023-05-09T15:52:35.782Z,23.80
2023-05-09T15:55:03.403Z,23.80
2023-05-09T15:57:31.343Z,23.80
2023-05-09T15:59:59.154Z,23.80
2023-05-09T16:02:28.690Z,23.80
2023-05-09T16:04:56.555Z,23.80
2023-05-09T16:07:25.398Z,23.80
2023-05-09T16:09:53.019Z,23.80
2023-05-09T16:12:24.546Z,23.80
2023-05-09T16:14:52.347Z,23.80
2023-05-09T16:17:20.208Z,23.90
2023-05-09T16:19:47.931Z,23.80
2023-05-09T16:22:15.773Z,23.80
2023-05-09T16:24:44.192Z,23.80
2023-05-09T16:27:12.195Z,23.80
2023-05-09T16:29:39.868Z,23.80
2023-05-09T16:32:08.846Z,23.80
2023-05-09T16:34:37.590Z,23.80
2023-05-09T16:37:08.384Z,23.80
2023-05-09T16:39:39.249Z,23.80
2023-05-09T16:42:07.028Z,23.70
2023-05-09T16:44:34.779Z,23.70
2023-05-09T16:47:02.569Z,23.70
2023-05-09T16:49:30.143Z,23.70
2023-05-09T16:51:58.444Z,23.70
2023-05-09T16:54:26.161Z,23.70
2023-05-09T16:56:54.354Z,23.70
2023-05-09T16:59:22.125Z,23.60
2023-05-09T17:01:49.825Z,23.70
2023-05-09T17:04:17.809Z,23.70
2023-05-09T17:06:45.629Z,23.60
2023-05-09T17:09:13.607Z,23.70
2023-05-09T17:11:41.550Z,23.60
2023-05-09T17:14:09.118Z,23.60
2023-05-09T17:16:38.261Z,23.60
2023-05-09T17:19:06.028Z,23.60
2023-05-09T17:21:34.526Z,23.60
2023-05-09T17:24:02.573Z,23.60
2023-05-09T17:26:30.655Z,23.50
2023-05-09T17:28:58.489Z,23.50
2023-05-09T17:31:26.724Z,23.50
2023-05-09T17:33:54.484Z,23.50
2023-05-09T17:36:22.047Z,23.50
2023-05-09T17:38:49.723Z,23.50
2023-05-09T17:41:17.662Z,23.50
2023-05-09T17:43:45.339Z,23.50
2023-05-09T17:46:14.972Z,23.50
2023-05-09T17:48:42.901Z,23.50
2023-05-09T17:51:10.575Z,23.50
2023-05-09T17:53:38.113Z,23.50
2023-05-09T17:56:05.831Z,23.50
2023-05-09T17:58:34.033Z,23.50
2023-05-09T18:01:01.729Z,23.50
2023-05-09T18:03:29.724Z,23.40
2023-05-09T18:05:57.795Z,23.40
2023-05-09T18:08:25.757Z,23.40
2023-05-09T18:10:57.073Z,23.40
2023-05-09T18:13:24.906Z,23.40
2023-05-09T18:15:57.223Z,23.40
2023-05-09T18:18:25.165Z,23.40
2023-05-09T18:20:52.852Z,23.40
2023-05-09T18:23:23.821Z,23.40
2023-05-09T18:25:52.519Z,23.40
2023-05-09T18:28:30.533Z,23.40
2023-05-09T18:31:00.874Z,23.40
2023-05-09T18:33:29.233Z,23.30
2023-05-09T18:35:56.783Z,23.30
2023-05-09T18:38:24.450Z,23.30
2023-05-09T18:40:52.517Z,23.30
2023-05-09T18:43:22.182Z,23.30
2023-05-09T18:45:50.346Z,23.30
2023-05-09T18:48:18.348Z,23.30
2023-05-09T18:50:45.978Z,23.20
2023-05-09T18:53:14.005Z,23.20
2023-05-09T18:55:42.904Z,23.20
2023-05-09T18:58:10.579Z,23.20
2023-05-09T19:00:39.999Z,23.20
2023-05-09T19:03:07.773Z,23.20
2023-05-09T19:05:36.028Z,23.20
2023-05-09T19:08:04.198Z,23.20
2023-05-09T19:10:32.099Z,23.20
2023-05-09T19:12:59.975Z,23.20
2023-05-09T19:15:28.439Z,23.10
2023-05-09T19:17:56.621Z,23.20
2023-05-09T19:20:24.849Z,23.20
2023-05-09T19:22:52.595Z,23.20
2023-05-09T19:25:20.411Z,23.10
2023-05-09T19:27:52.995Z,23.10
2023-05-09T19:30:21.142Z,23.20
2023-05-09T19:32:48.876Z,23.10
2023-05-09T19:35:16.721Z,23.10
2023-05-09T19:37:44.552Z,23.10
2023-05-09T19:40:12.779Z,23.20
2023-05-09T19:42:42.221Z,23.10
2023-05-09T19:45:10.546Z,23.10
2023-05-09T19:47:38.212Z,23.10
2023-05-09T19:50:07.106Z,23.10
2023-05-09T19:52:36.527Z,23.10
2023-05-09T19:55:06.150Z,23.10
2023-05-09T19:57:34.022Z,23.10
2023-05-09T20:00:01.694Z,23.10
2023-05-09T20:02:29.550Z,23.10
2023-05-09T20:04:57.108Z,23.10
2023-05-09T20:07:24.710Z,23.10
2023-05-09T20:09:52.741Z,23.00
2023-05-09T20:12:20.088Z,23.00
2023-05-09T20:14:47.680Z,23.00
2023-05-09T20:17:15.333Z,23.00
2023-05-09T20:19:43.023Z,23.00
2023-05-09T20:22:10.486Z,23.00
2023-05-09T20:24:38.125Z,23.00
2023-05-09T20:27:05.798Z,23.00
2023-05-09T20:29:33.356Z,23.00
2023-05-09T20:32:01.511Z,23.00
2023-05-09T20:34:29.771Z,23.00
2023-05-09T20:36:57.500Z,23.00
2023-05-09T20:39:25.170Z,23.00
2023-05-09T20:41:53.045Z,23.00
2023-05-09T20:44:20.818Z,23.00
2023-05-09T20:46:48.529Z,23.00
2023-05-09T20:49:16.233Z,23.00
2023-05-09T20:51:44.236Z,23.00
2023-05-09T20:54:11.912Z,23.00
2023-05-09T20:56:39.602Z,23.00
2023-05-09T20:59:07.015Z,23.00
2023-05-09T21:01:37.517Z,23.00
2023-05-09T21:04:05.971Z,23.00
2023-05-09T21:06:33.821Z,23.00
2023-05-09T21:09:02.029Z,23.00
2023-05-09T21:11:30.428Z,23.00
2023-05-09T21:13:57.966Z,23.00
2023-05-09T21:16:28.648Z,23.00
2023-05-09T21:18:57.582Z,23.00
2023-05-09T21:21:25.526Z,23.00
2023-05-09T21:23:53.119Z,23.10
2023-05-09T21:26:23.227Z,23.10
2023-05-09T21:28:51.376Z,23.10
2023-05-09T21:31:18.637Z,23.10
2023-05-09T21:33:46.440Z,23.10
2023-05-09T21:36:14.321Z,23.10
2023-05-09T21:38:42.059Z,23.10
2023-05-09T21:41:10.360Z,23.10
2023-05-09T21:43:37.984Z,23.00
2023-05-09T21:46:06.176Z,23.10
2023-05-09T21:48:34.394Z,23.00
2023-05-09T21:51:03.787Z,23.00
2023-05-09T21:53:31.717Z,23.00
2023-05-09T21:56:02.435Z,23.00
2023-05-09T21:58:30.013Z,23.00
2023-05-09T22:00:57.433Z,23.00
2023-05-09T22:03:25.371Z,23.00
2023-05-09T22:05:53.121Z,23.00
2023-05-09T22:08:20.823Z,23.00
2023-05-09T22:10:48.596Z,23.00
2023-05-09T22:13:17.556Z,22.90
2023-05-09T22:15:45.008Z,22.90
2023-05-09T22:18:12.682Z,22.90
2023-05-09T22:20:40.169Z,22.90
2023-05-09T22:23:07.708Z,22.90
2023-05-09T22:25:35.702Z,22.90
2023-05-09T22:28:03.557Z,22.90
2023-05-09T22:30:31.510Z,22.90
2023-05-09T22:33:00.460Z,22.80
2023-05-09T22:35:28.271Z,22.80
2023-05-09T22:37:56.062Z,22.80
2023-05-09T22:40:24.085Z,22.80
2023-05-09T22:42:51.713Z,22.80
2023-05-09T22:45:20.700Z,22.80
2023-05-09T22:47:48.872Z,22.80
2023-05-09T22:50:16.966Z,22.70
2023-05-09T22:52:44.846Z,22.70
2023-05-09T22:55:12.656Z,22.70
2023-05-09T22:57:41.787Z,22.70
2023-05-09T23:00:10.288Z,22.70
2023-05-09T23:02:38.367Z,22.70
2023-05-09T23:05:06.680Z,22.70
2023-05-09T23:07:34.643Z,22.70
2023-05-09T23:10:02.641Z,22.70
2023-05-09T23:12:30.499Z,22.70
2023-05-09T23:14:58.333Z,22.70
2023-05-09T23:17:29.321Z,22.70
2023-05-09T23:19:57.292Z,22.70
2023-05-09T23:22:25.102Z,22.70
2023-05-09T23:24:52.818Z,22.60
2023-05-09T23:27:20.421Z,22.60
2023-05-09T23:29:48.068Z,22.60
2023-05-09T23:32:15.767Z,22.60
2023-05-09T23:34:43.433Z,22.60
2023-05-09T23:37:12.168Z,22.60
2023-05-09T23:39:40.066Z,22.60
2023-05-09T23:42:08.414Z,22.60
2023-05-09T23:44:36.078Z,22.60
2023-05-09T23:47:03.969Z,22.60
2023-05-09T23:49:32.002Z,22.60
2023-05-09T23:51:59.684Z,22.60
2023-05-09T23:54:27.509Z,22.60
2023-05-09T23:56:57.670Z,22.60
2023-05-09T23:59:25.576Z,22.60
